РПИ Ашхабад

Руководство

Evgeny Vygornitsky*

Куратор
Инструкторы РПИ
Evgeny Vygornitsky (Supervisor)
Vitaliy Alekseyev (Instructor)
Входит в состав
Центральная Азия

Диспетчеры РПИ

Диспетчер Рейтинг Допуски *
begench atayev Student 2 UTAA_GND

Аэропорты РПИ

ICAO Город Название Погода
UTAA Ашхабад Ашхабад UTAA 100800Z 09006KT 050V120 9999 BKN022 OVC100 01/M07 Q1031 R88/70D NOSIG
UTAM Мары Мары UTAM 100800Z 00000KT CAVOK 01/M02 Q1034 R88/CLRD70 NOSIG